Time;durP1;ratioP1;P1;durP2;ratioP2;P2;SDS_P1;SDS_P2;PMS_P1;PMS_P2;Temp;Humidity;BMP_temperature;BMP_pressure;BME280_temperature;BME280_humidity;BME280_pressure;Samples;Min_cycle;Max_cycle;Signal;HPM_P1;HPM_P2
2023/08/02 00:01:01;;;;;;;1.65;1.00;;;;;;;17.35;97.10;97293.88;2613372;28;20049;-85
2023/08/02 00:02:24;;;;;;;1.73;0.75;;;;;;;17.35;95.97;97294.75;2613621;28;20045;-85
2023/08/02 00:03:39;;;;;;;3.05;0.80;;;;;;;17.17;98.24;97301.38;2613364;28;20041;-85
2023/08/02 00:04:55;;;;;;;1.17;0.90;;;;;;;17.36;96.24;97303.50;2602312;28;20053;-85
2023/08/02 00:06:10;;;;;;;2.63;1.10;;;;;;;17.51;96.52;97297.06;2606788;28;20071;-85
2023/08/02 00:07:26;;;;;;;3.05;0.82;;;;;;;17.26;96.41;97298.06;2613417;28;20404;-85
2023/08/02 00:08:41;;;;;;;1.17;0.90;;;;;;;17.12;98.86;97293.81;2613278;28;20106;-85
2023/08/02 00:09:57;;;;;;;2.30;0.90;;;;;;;17.22;98.40;97297.44;2613424;28;20037;-85
2023/08/02 00:11:18;;;;;;;0.93;0.82;;;;;;;17.00;100.00;97303.47;2613496;28;20423;-85
2023/08/02 00:12:34;;;;;;;0.82;0.60;;;;;;;17.07;98.30;97296.78;2613225;28;20099;-85
2023/08/02 00:13:49;;;;;;;0.40;0.40;;;;;;;16.91;100.00;97299.66;2613374;28;20065;-85
2023/08/02 00:15:05;;;;;;;1.77;0.77;;;;;;;16.95;100.00;97306.41;2613464;28;20408;-86
2023/08/02 00:16:21;;;;;;;1.38;0.70;;;;;;;17.04;100.00;97309.38;2613453;28;20484;-85
2023/08/02 00:17:37;;;;;;;1.48;0.57;;;;;;;16.91;100.00;97315.50;2612871;28;20045;-85
2023/08/02 00:18:52;;;;;;;1.25;0.57;;;;;;;16.88;100.00;97307.81;2613229;28;20106;-85
2023/08/02 00:20:08;;;;;;;1.17;0.80;;;;;;;16.93;100.00;97312.78;2613311;28;20045;-85
2023/08/02 00:21:23;;;;;;;1.10;0.60;;;;;;;16.90;100.00;97312.97;2613367;28;20045;-85
2023/08/02 00:22:40;;;;;;;2.22;0.88;;;;;;;16.88;100.00;97309.59;2613410;28;20049;-85
2023/08/02 00:23:55;;;;;;;2.15;1.02;;;;;;;17.07;98.99;97314.44;2613127;28;20045;-85
2023/08/02 00:25:11;;;;;;;1.73;0.93;;;;;;;17.14;98.80;97322.75;2613277;28;20420;-85
2023/08/02 00:26:27;;;;;;;0.60;0.60;;;;;;;16.79;100.00;97319.91;2613405;28;20053;-85
2023/08/02 00:27:43;;;;;;;1.10;0.63;;;;;;;16.93;100.00;97312.78;2613174;28;20056;-85
2023/08/02 00:28:59;;;;;;;3.60;1.10;;;;;;;17.14;99.20;97313.03;2613151;28;20040;-85
2023/08/02 00:30:14;;;;;;;1.23;0.95;;;;;;;17.17;99.21;97322.53;2613310;28;20044;-85
2023/08/02 00:31:30;;;;;;;1.75;0.80;;;;;;;17.11;99.11;97310.59;2613411;28;20068;-85
2023/08/02 00:32:47;;;;;;;1.13;0.80;;;;;;;16.91;100.00;97322.63;2613035;28;20069;-86
2023/08/02 00:34:02;;;;;;;1.13;0.80;;;;;;;16.93;100.00;97328.63;2613378;28;20083;-85
2023/08/02 00:35:18;;;;;;;1.58;0.80;;;;;;;16.76;100.00;97325.41;2613282;28;20066;-85
2023/08/02 00:36:33;;;;;;;1.20;0.70;;;;;;;16.75;100.00;97326.34;2613267;28;20060;-85
2023/08/02 00:37:49;;;;;;;1.00;0.70;;;;;;;16.92;100.00;97324.31;2613099;28;20045;-85
2023/08/02 00:39:04;;;;;;;1.33;0.82;;;;;;;16.91;100.00;97322.63;2613326;28;20107;-85
2023/08/02 00:40:23;;;;;;;1.77;0.88;;;;;;;17.04;98.95;97323.47;2613030;28;20068;-85
2023/08/02 00:41:39;;;;;;;0.85;0.70;;;;;;;17.05;99.52;97319.84;2613110;28;20045;-85
2023/08/02 00:42:55;;;;;;;2.15;0.50;;;;;;;17.16;98.41;97320.84;2613113;28;20519;-85
2023/08/02 00:44:11;;;;;;;1.00;0.70;;;;;;;16.98;99.28;97318.56;2612931;28;20094;-85
2023/08/02 00:45:26;;;;;;;2.35;0.80;;;;;;;16.94;100.00;97322.41;2613014;28;20060;-85
2023/08/02 00:46:42;;;;;;;1.08;0.70;;;;;;;17.02;99.72;97325.34;2613049;28;20495;-85
2023/08/02 00:47:58;;;;;;;2.08;0.70;;;;;;;16.89;100.00;97322.72;2612992;28;20040;-85
2023/08/02 00:49:13;;;;;;;2.83;1.00;;;;;;;17.15;99.18;97327.09;2613029;28;20049;-85
2023/08/02 00:50:31;;;;;;;1.40;0.90;;;;;;;17.17;98.36;97322.53;2613078;28;20040;-86
2023/08/02 00:51:46;;;;;;;4.05;1.00;;;;;;;17.22;98.14;97323.88;2612884;28;20084;-85
2023/08/02 00:53:03;;;;;;;2.15;1.17;;;;;;;17.15;99.59;97327.94;2612957;28;20048;-85
2023/08/02 00:54:18;;;;;;;2.65;1.08;;;;;;;17.08;100.00;97318.75;2612938;28;20091;-85
2023/08/02 00:55:34;;;;;;;1.17;0.80;;;;;;;16.93;100.00;97320.72;2612981;28;20041;-85
2023/08/02 00:56:49;;;;;;;0.93;0.90;;;;;;;17.10;99.31;97323.97;2612977;28;20045;-85
2023/08/02 00:58:05;;;;;;;1.33;0.80;;;;;;;16.73;100.00;97322.97;2612976;28;20846;-85
2023/08/02 00:59:21;;;;;;;1.05;0.70;;;;;;;16.71;100.00;97324.88;2612988;28;20087;-85
2023/08/02 01:00:36;;;;;;;2.78;1.10;;;;;;;16.95;100.00;97324.09;2612589;28;20699;-85
2023/08/02 01:01:51;;;;;;;3.00;0.95;;;;;;;16.93;100.00;97331.28;2612842;28;20049;-85
2023/08/02 01:03:07;;;;;;;2.85;1.20;;;;;;;16.74;100.00;97327.28;2612897;28;20048;-85
2023/08/02 01:04:23;;;;;;;1.27;0.77;;;;;;;16.80;100.00;97329.50;2612746;28;20041;-85
2023/08/02 01:05:46;;;;;;;0.80;0.80;;;;;;;17.04;99.83;97330.53;2612745;28;20045;-85
2023/08/02 01:07:31;;;;;;;1.75;1.00;;;;;;;16.98;100.00;97329.13;2612885;28;20176;-85
2023/08/02 01:09:02;;;;;;;1.00;0.70;;;;;;;16.79;100.00;97332.25;2591345;28;20493;-85
2023/08/02 01:10:18;;;;;;;0.90;0.70;;;;;;;16.73;100.00;97330.06;2612608;28;20132;-85
2023/08/02 01:11:40;;;;;;;1.08;0.90;;;;;;;16.63;100.00;97333.34;2612896;28;20491;-85
2023/08/02 01:12:57;;;;;;;;;;;;;;;16.52;100.00;97331.47;2613236;28;20045;-86
2023/08/02 01:14:18;;;;;;;1.35;0.88;;;;;;;16.58;100.00;97338.13;2612906;28;20334;-85
2023/08/02 01:15:35;;;;;;;1.00;0.95;;;;;;;16.76;100.00;97329.84;2612578;28;20145;-86
2023/08/02 01:16:51;;;;;;;1.55;1.00;;;;;;;16.66;100.00;97329.66;2612845;28;20195;-86
2023/08/02 01:18:08;;;;;;;1.75;0.90;;;;;;;16.57;100.00;97325.00;2612780;28;20053;-85
2023/08/02 01:19:24;;;;;;;1.65;0.90;;;;;;;16.62;100.00;97325.50;2612526;28;20044;-85
2023/08/02 01:20:40;;;;;;;2.65;1.17;;;;;;;16.56;100.00;97326.81;2612836;28;20476;-85
2023/08/02 01:21:55;;;;;;;1.50;0.70;;;;;;;16.45;100.00;97330.19;2612610;28;20045;-86
2023/08/02 01:23:11;;;;;;;2.90;1.10;;;;;;;16.56;100.00;97329.47;2612600;28;20669;-85
2023/08/02 01:24:33;;;;;;;1.77;1.00;;;;;;;16.42;100.00;97327.78;2612654;28;20492;-85
2023/08/02 01:25:51;;;;;;;1.50;0.80;;;;;;;16.30;100.00;97336.56;2612729;28;20049;-85
2023/08/02 01:27:16;;;;;;;2.95;0.80;;;;;;;16.31;100.00;97336.47;2612752;28;20073;-85
2023/08/02 01:28:37;;;;;;;3.08;0.88;;;;;;;16.28;100.00;97335.81;2612624;28;20045;-85
2023/08/02 01:29:55;;;;;;;1.60;0.80;;;;;;;16.40;100.00;97331.47;2611648;28;20056;-85
2023/08/02 01:31:15;;;;;;;1.92;0.93;;;;;;;16.37;100.00;97343.94;2612685;28;20044;-85
2023/08/02 01:32:30;;;;;;;3.95;1.70;;;;;;;16.59;100.00;97339.81;2601576;28;20049;-85
2023/08/02 01:33:50;;;;;;;0.88;0.68;;;;;;;16.37;100.00;97338.66;2605938;28;20114;-86
2023/08/02 01:35:07;;;;;;;1.23;1.13;;;;;;;16.34;100.00;97335.38;2612510;28;20072;-85
2023/08/02 01:36:23;;;;;;;0.68;0.60;;;;;;;16.39;100.00;97346.50;2612735;28;20049;-85
2023/08/02 01:37:41;;;;;;;1.63;0.80;;;;;;;16.39;100.00;97346.50;2612720;28;20060;-86
2023/08/02 01:38:56;;;;;;;1.23;1.02;;;;;;;16.34;100.00;97349.44;2612703;28;20053;-85
2023/08/02 01:40:13;;;;;;;2.08;0.80;;;;;;;16.33;100.00;97347.75;2601329;28;20076;-85
2023/08/02 01:41:29;;;;;;;1.27;0.80;;;;;;;16.56;100.00;97342.69;2606210;28;20503;-85
2023/08/02 01:42:44;;;;;;;2.50;1.00;;;;;;;16.57;100.00;97340.88;2612618;28;20072;-85
2023/08/02 01:44:00;;;;;;;2.15;1.15;;;;;;;16.60;100.00;97340.63;2601393;28;20504;-85
2023/08/02 01:45:15;;;;;;;1.23;0.95;;;;;;;16.37;100.00;97345.75;2595252;28;20511;-85
2023/08/02 01:46:31;;;;;;;1.63;1.00;;;;;;;16.59;100.00;97337.16;2605917;28;20052;-85
2023/08/02 01:47:47;;;;;;;1.48;1.00;;;;;;;16.47;100.00;97338.84;2612496;28;20091;-85
2023/08/02 01:49:03;;;;;;;2.45;1.30;;;;;;;16.60;100.00;97340.63;2612468;28;20049;-85
2023/08/02 01:50:18;;;;;;;2.85;1.05;;;;;;;16.55;100.00;97342.78;2612565;28;20071;-85
2023/08/02 01:51:34;;;;;;;2.55;1.10;;;;;;;16.60;100.00;97344.13;2612364;28;20048;-85
2023/08/02 01:52:49;;;;;;;2.28;1.23;;;;;;;16.57;100.00;97346.16;2612337;28;20483;-86
2023/08/02 01:54:05;;;;;;;1.38;0.80;;;;;;;16.59;100.00;97346.88;2612379;28;20508;-85
2023/08/02 01:55:21;;;;;;;1.15;0.80;;;;;;;16.62;100.00;97349.28;2612411;28;20045;-85
2023/08/02 01:56:36;;;;;;;0.88;0.70;;;;;;;16.53;100.00;97340.22;2612355;28;20041;-86
2023/08/02 01:57:52;;;;;;;1.40;0.65;;;;;;;16.29;100.00;97348.94;2612560;28;20056;-85
2023/08/02 01:59:07;;;;;;;0.68;0.68;;;;;;;16.10;100.00;97328.22;2612531;28;20045;-86
2023/08/02 02:00:23;;;;;;;2.53;0.47;;;;;;;16.05;100.00;97349.66;2612375;28;20076;-85
2023/08/02 02:01:39;;;;;;;0.60;0.60;;;;;;;16.13;100.00;97345.63;2612102;28;20057;-85
2023/08/02 02:02:57;;;;;;;1.00;0.90;;;;;;;16.32;100.00;97347.84;2612535;28;20041;-85
2023/08/02 02:04:12;;;;;;;2.45;1.00;;;;;;;16.63;100.00;97349.22;2612234;28;20120;-86
2023/08/02 02:05:28;;;;;;;0.68;0.63;;;;;;;16.61;100.00;97342.31;2612349;28;20141;-85
2023/08/02 02:06:43;;;;;;;1.05;0.82;;;;;;;16.19;100.00;97348.69;2612444;28;20396;-86
2023/08/02 02:07:59;;;;;;;1.02;0.93;;;;;;;16.21;100.00;97351.25;2612484;28;20060;-85
2023/08/02 02:09:14;;;;;;;1.13;0.60;;;;;;;16.23;100.00;97352.84;2612273;28;20041;-85
2023/08/02 02:10:30;;;;;;;1.00;0.80;;;;;;;16.28;100.00;97352.53;2612260;28;20045;-86
2023/08/02 02:11:45;;;;;;;0.68;0.60;;;;;;;16.02;100.00;97343.72;2612415;28;20057;-85
2023/08/02 02:13:01;;;;;;;0.88;0.50;;;;;;;16.12;100.00;97347.44;2612395;28;20037;-85
2023/08/02 02:14:16;;;;;;;1.55;0.95;;;;;;;16.48;100.00;97345.00;2612400;28;20049;-85
2023/08/02 02:15:32;;;;;;;1.88;0.88;;;;;;;16.33;100.00;97346.91;2612252;28;20073;-85
2023/08/02 02:16:48;;;;;;;1.42;1.02;;;;;;;16.33;100.00;97347.75;2612340;28;20052;-85
2023/08/02 02:18:03;;;;;;;2.00;1.00;;;;;;;16.32;100.00;97348.72;2612227;28;20041;-85
2023/08/02 02:19:19;;;;;;;1.33;1.17;;;;;;;16.16;100.00;97348.91;2612335;28;20052;-85
2023/08/02 02:20:34;;;;;;;3.30;1.23;;;;;;;16.33;100.00;97349.53;2612177;28;20113;-86
2023/08/02 02:21:50;;;;;;;2.22;1.00;;;;;;;16.22;100.00;97352.94;2612212;28;20045;-86
2023/08/02 02:23:05;;;;;;;1.67;1.02;;;;;;;16.47;100.00;97353.88;2612395;28;20045;-85
2023/08/02 02:24:21;;;;;;;2.15;1.02;;;;;;;16.47;100.00;97353.88;2601195;28;20115;-86
2023/08/02 02:25:36;;;;;;;5.05;1.00;;;;;;;16.36;100.00;97346.72;2605473;28;20049;-85
2023/08/02 02:26:52;;;;;;;0.82;0.70;;;;;;;16.04;100.00;97347.09;2612408;28;20416;-85
2023/08/02 02:28:07;;;;;;;2.90;1.10;;;;;;;16.34;100.00;97351.22;2612400;28;20056;-85
2023/08/02 02:29:23;;;;;;;2.33;1.00;;;;;;;16.27;100.00;97349.97;2612274;28;20048;-85
2023/08/02 02:30:42;;;;;;;2.17;1.00;;;;;;;16.14;100.00;97350.81;2612067;28;20411;-85
2023/08/02 02:31:57;;;;;;;1.75;1.20;;;;;;;16.24;100.00;97346.59;2612343;28;20453;-85
2023/08/02 02:33:13;;;;;;;1.63;1.00;;;;;;;16.05;100.00;97351.44;2612141;28;20048;-85
2023/08/02 02:34:28;;;;;;;4.57;1.30;;;;;;;16.18;100.00;97347.00;2612165;28;20072;-85
2023/08/02 02:35:44;;;;;;;3.05;1.17;;;;;;;16.26;100.00;97348.28;2612125;28;20492;-85
2023/08/02 02:37:00;;;;;;;1.60;1.00;;;;;;;16.19;100.00;97351.34;2612347;28;20116;-85
2023/08/02 02:38:15;;;;;;;2.38;1.10;;;;;;;16.15;100.00;97349.88;2612277;28;20041;-86
2023/08/02 02:39:30;;;;;;;2.10;1.33;;;;;;;16.25;100.00;97344.78;2612357;28;20049;-85
2023/08/02 02:40:46;;;;;;;2.45;1.13;;;;;;;16.21;100.00;97345.97;2612330;28;20049;-85
2023/08/02 02:42:02;;;;;;;0.90;0.80;;;;;;;16.12;100.00;97355.38;2614279;28;20056;-87
2023/08/02 02:43:17;;;;;;;1.77;1.20;;;;;;;16.21;100.00;97351.25;2614107;28;20048;-85
2023/08/02 02:44:42;;;;;;;2.72;1.00;;;;;;;16.17;100.00;97355.88;2614326;28;20496;-85
2023/08/02 02:45:58;;;;;;;1.98;1.10;;;;;;;16.14;100.00;97361.38;2614201;28;20154;-85
2023/08/02 02:47:14;;;;;;;3.10;1.10;;;;;;;16.39;100.00;97357.06;2614302;28;20053;-85
2023/08/02 02:48:29;;;;;;;4.10;1.20;;;;;;;16.31;100.00;97356.72;2614091;28;20048;-85
2023/08/02 02:49:45;;;;;;;4.32;1.27;;;;;;;16.41;100.00;97359.56;2614251;28;20045;-86
2023/08/02 02:51:00;;;;;;;3.42;1.25;;;;;;;16.19;100.00;97353.16;2614195;28;20037;-85
2023/08/02 02:52:16;;;;;;;1.48;1.00;;;;;;;16.22;100.00;97353.78;2614225;28;20068;-85
2023/08/02 02:53:31;;;;;;;1.20;1.00;;;;;;;16.12;100.00;97352.72;2614266;28;20041;-85
2023/08/02 02:54:47;;;;;;;2.47;1.00;;;;;;;16.23;100.00;97346.69;2614104;28;20060;-85
2023/08/02 02:56:03;;;;;;;2.92;1.45;;;;;;;16.18;100.00;97349.66;2614281;28;20053;-85
2023/08/02 02:57:18;;;;;;;2.33;1.08;;;;;;;16.10;100.00;97352.81;2614122;28;20041;-85
2023/08/02 02:58:33;;;;;;;1.40;1.10;;;;;;;15.97;100.00;97343.22;2614165;28;20052;-85
2023/08/02 02:59:49;;;;;;;1.52;1.30;;;;;;;16.07;100.00;97345.09;2614012;28;20056;-86
2023/08/02 03:01:05;;;;;;;1.40;0.80;;;;;;;16.01;100.00;97347.31;2613950;28;20126;-85
2023/08/02 03:02:20;;;;;;;3.50;1.27;;;;;;;16.03;100.00;97342.78;2614118;28;20052;-85
2023/08/02 03:03:36;;;;;;;2.63;1.15;;;;;;;16.18;100.00;97347.00;2614099;28;20049;-85
2023/08/02 03:04:51;;;;;;;1.98;1.30;;;;;;;16.06;100.00;97345.19;2613974;28;20049;-85
2023/08/02 03:06:07;;;;;;;2.97;1.17;;;;;;;15.91;100.00;97347.09;2614025;28;20049;-85
2023/08/02 03:07:22;;;;;;;2.25;1.25;;;;;;;15.89;100.00;97355.13;2614117;28;20056;-85
2023/08/02 03:08:38;;;;;;;4.45;1.10;;;;;;;16.03;100.00;97346.28;2614017;28;20048;-85
2023/08/02 03:09:54;;;;;;;2.65;1.10;;;;;;;16.13;100.00;97348.25;2602737;28;20153;-85
2023/08/02 03:11:09;;;;;;;2.25;1.25;;;;;;;16.16;100.00;97353.38;2607494;28;20103;-85
2023/08/02 03:12:24;;;;;;;2.40;1.33;;;;;;;16.22;100.00;97353.78;2614074;28;20045;-85
2023/08/02 03:13:40;;;;;;;2.33;1.10;;;;;;;16.22;100.00;97351.16;2613916;28;20138;-85
2023/08/02 03:14:56;;;;;;;3.00;1.40;;;;;;;16.09;100.00;97352.94;2613796;28;20049;-85
2023/08/02 03:16:11;;;;;;;2.10;1.25;;;;;;;16.14;100.00;97360.56;2614086;28;20045;-86
2023/08/02 03:17:27;;;;;;;3.58;1.27;;;;;;;16.03;100.00;97356.84;2613805;28;20045;-85
2023/08/02 03:18:43;;;;;;;4.07;1.30;;;;;;;16.14;100.00;97356.09;2613961;28;20103;-86
2023/08/02 03:19:59;;;;;;;4.22;1.80;;;;;;;16.14;100.00;97358.72;2613836;28;20045;-85
2023/08/02 03:21:14;;;;;;;3.03;1.60;;;;;;;16.13;100.00;97354.41;2614049;28;20048;-85
2023/08/02 03:22:30;;;;;;;4.72;1.48;;;;;;;15.62;100.00;97357.78;2613823;28;20041;-85
2023/08/02 03:23:45;;;;;;;1.52;1.05;;;;;;;15.63;100.00;97349.75;2613939;28;20045;-85
2023/08/02 03:25:01;;;;;;;2.95;1.40;;;;;;;15.62;100.00;97353.34;2613757;28;20044;-85
2023/08/02 03:26:16;;;;;;;5.13;1.50;;;;;;;15.66;100.00;97352.22;2613903;28;20049;-85
2023/08/02 03:27:32;;;;;;;2.92;1.05;;;;;;;15.60;100.00;97355.25;2613920;28;20045;-85
2023/08/02 03:28:47;;;;;;;3.63;1.65;;;;;;;15.70;100.00;97359.91;2613884;28;20045;-86
2023/08/02 03:30:04;;;;;;;1.70;1.25;;;;;;;15.86;100.00;97355.28;2613709;28;20122;-85
2023/08/02 03:31:19;;;;;;;2.00;1.23;;;;;;;16.03;100.00;97355.97;2613782;28;20041;-86
2023/08/02 03:32:35;;;;;;;4.18;1.20;;;;;;;15.98;100.00;97358.09;2613778;28;20072;-85
2023/08/02 03:33:50;;;;;;;3.67;1.45;;;;;;;16.09;100.00;97356.41;2613770;28;20120;-85
2023/08/02 03:35:06;;;;;;;1.80;1.15;;;;;;;16.03;100.00;97351.56;2613632;28;20041;-85
2023/08/02 03:36:22;;;;;;;2.83;1.20;;;;;;;16.13;100.00;97357.06;2613754;28;20502;-85
2023/08/02 03:37:37;;;;;;;3.45;1.40;;;;;;;16.06;100.00;97347.84;2613622;28;20480;-85
2023/08/02 03:38:53;;;;;;;1.88;1.30;;;;;;;16.14;100.00;97355.28;2613804;28;20068;-87
2023/08/02 03:40:09;;;;;;;2.22;1.40;;;;;;;15.75;100.00;97360.44;2613668;28;20067;-86
2023/08/02 03:41:24;;;;;;;4.03;1.30;;;;;;;15.88;100.00;97363.94;2613878;28;20049;-86
2023/08/02 03:42:40;;;;;;;3.08;1.52;;;;;;;15.99;100.00;97349.22;2613724;28;20045;-85
2023/08/02 03:43:56;;;;;;;2.97;1.30;;;;;;;16.12;100.00;97351.88;2602487;28;20172;-86
2023/08/02 03:45:11;;;;;;;3.75;1.38;;;;;;;15.94;100.00;97357.44;2606878;28;20992;-85
2023/08/02 03:46:26;;;;;;;1.67;1.27;;;;;;;16.01;100.00;97357.88;2613795;28;20477;-86
2023/08/02 03:47:42;;;;;;;3.38;1.45;;;;;;;16.15;100.00;97360.44;2613585;28;20107;-86
2023/08/02 03:48:58;;;;;;;5.57;1.40;;;;;;;16.11;100.00;97356.31;2602583;28;20044;-85
2023/08/02 03:50:13;;;;;;;3.08;1.38;;;;;;;16.07;100.00;97355.66;2606962;28;20049;-86
2023/08/02 03:51:29;;;;;;;2.78;1.20;;;;;;;16.17;100.00;97352.41;2613558;28;20052;-85
2023/08/02 03:52:44;;;;;;;4.07;1.40;;;;;;;16.03;100.00;97353.34;2612566;28;20120;-86
2023/08/02 03:54:00;;;;;;;5.28;1.30;;;;;;;16.19;100.00;97346.06;2602563;28;20583;-86
2023/08/02 03:55:15;;;;;;;3.65;1.50;;;;;;;16.26;100.00;97350.94;2606748;28;20048;-86
2023/08/02 03:56:31;;;;;;;3.50;1.50;;;;;;;16.32;100.00;97355.78;2613558;28;20519;-85
2023/08/02 03:57:47;;;;;;;1.95;1.05;;;;;;;15.98;100.00;97353.66;2613438;28;20120;-85
2023/08/02 03:59:02;;;;;;;1.98;1.52;;;;;;;16.04;100.00;97352.38;2613651;28;20049;-85
2023/08/02 04:00:18;;;;;;;4.78;1.38;;;;;;;16.14;100.00;97347.34;2613442;28;20051;-86
2023/08/02 04:01:33;;;;;;;4.13;1.45;;;;;;;16.21;100.00;97348.59;2613350;28;20061;-86
2023/08/02 04:02:49;;;;;;;2.15;1.10;;;;;;;16.33;100.00;97346.91;2613541;28;20095;-85
2023/08/02 04:04:04;;;;;;;2.17;1.20;;;;;;;16.45;100.00;97348.69;2613471;28;20048;-86
2023/08/02 04:05:20;;;;;;;7.38;1.40;;;;;;;16.66;100.00;97348.16;2602401;28;20049;-86
2023/08/02 04:06:35;;;;;;;2.72;1.50;;;;;;;16.57;100.00;97347.00;2606904;28;20056;-86
2023/08/02 04:07:51;;;;;;;3.58;1.10;;;;;;;16.55;100.00;97351.53;2613443;28;20068;-85
2023/08/02 04:09:06;;;;;;;2.25;1.10;;;;;;;16.62;100.00;97352.81;2613466;28;20045;-85
2023/08/02 04:10:22;;;;;;;1.95;1.20;;;;;;;16.62;100.00;97352.81;2613320;28;20527;-86
2023/08/02 04:11:37;;;;;;;2.05;1.20;;;;;;;16.56;100.00;97349.75;2613405;28;20040;-85
2023/08/02 04:12:53;;;;;;;2.95;1.20;;;;;;;16.56;100.00;97350.59;2613307;28;20156;-86
2023/08/02 04:14:08;;;;;;;2.17;1.27;;;;;;;16.55;100.00;97354.16;2602379;28;20045;-86
2023/08/02 04:15:24;;;;;;;3.38;1.70;;;;;;;16.45;100.00;97355.78;2606798;28;20049;-86
2023/08/02 04:16:39;;;;;;;3.88;1.40;;;;;;;16.36;100.00;97347.53;2613267;28;20053;-86
2023/08/02 04:17:56;;;;;;;1.80;1.40;;;;;;;16.37;100.00;97343.13;2613247;28;20496;-86
2023/08/02 04:19:11;;;;;;;4.63;1.88;;;;;;;16.42;100.00;97335.69;2613525;28;20374;-86
2023/08/02 04:20:27;;;;;;;3.00;1.45;;;;;;;16.59;100.00;97331.03;2613430;28;20041;-86
2023/08/02 04:21:42;;;;;;;2.55;1.20;;;;;;;16.70;100.00;97331.13;2613311;28;20045;-86
2023/08/02 04:22:58;;;;;;;4.45;1.23;;;;;;;16.70;100.00;97336.41;2613242;28;20041;-86
2023/08/02 04:24:14;;;;;;;2.75;1.30;;;;;;;16.47;100.00;97328.28;2613369;28;20045;-86
2023/08/02 04:25:29;;;;;;;5.18;1.70;;;;;;;16.53;100.00;97337.59;2613285;28;20049;-86
2023/08/02 04:26:45;;;;;;;2.95;1.23;;;;;;;16.63;100.00;97335.16;2613204;28;20064;-86
2023/08/02 04:28:01;;;;;;;3.38;1.40;;;;;;;16.62;100.00;97334.31;2602155;28;20037;-86
2023/08/02 04:29:16;;;;;;;2.28;1.27;;;;;;;16.44;100.00;97335.59;2606703;28;20041;-86
2023/08/02 04:30:32;;;;;;;4.47;1.40;;;;;;;16.49;100.00;97336.97;2613251;28;20045;-86
2023/08/02 04:31:47;;;;;;;4.10;1.48;;;;;;;16.59;100.00;97334.53;2613289;28;20044;-86
2023/08/02 04:33:03;;;;;;;3.10;1.30;;;;;;;16.71;100.00;97342.53;2613156;28;20045;-86
2023/08/02 04:34:18;;;;;;;4.50;1.40;;;;;;;16.63;100.00;97337.81;2613116;28;20037;-86
2023/08/02 04:35:34;;;;;;;1.90;1.48;;;;;;;16.55;100.00;97333.03;2613237;28;20156;-86
2023/08/02 04:36:50;;;;;;;1.85;1.20;;;;;;;16.55;100.00;97334.84;2613257;28;20049;-86
2023/08/02 04:38:06;;;;;;;1.92;1.30;;;;;;;16.74;100.00;97337.88;2613032;28;20071;-86
2023/08/02 04:39:22;;;;;;;3.92;1.30;;;;;;;16.81;100.00;97330.34;2613159;28;20493;-86
2023/08/02 04:40:38;;;;;;;2.42;1.30;;;;;;;16.79;100.00;97332.25;2613141;28;20049;-86
2023/08/02 04:41:54;;;;;;;3.13;1.30;;;;;;;16.81;100.00;97327.69;2613062;28;20055;-86
2023/08/02 04:43:10;;;;;;;2.58;1.30;;;;;;;16.97;100.00;97334.53;2613105;28;20472;-86
2023/08/02 04:44:26;;;;;;;4.88;1.55;;;;;;;17.15;100.00;97329.75;2613010;28;20049;-86
2023/08/02 04:45:41;;;;;;;1.45;1.20;;;;;;;16.89;100.00;97325.38;2613068;28;20512;-86
2023/08/02 04:46:57;;;;;;;2.58;1.42;;;;;;;16.94;100.00;97331.16;2612917;28;20044;-85
2023/08/02 04:48:12;;;;;;;3.38;1.40;;;;;;;16.84;100.00;97324.88;2613195;28;20056;-85
2023/08/02 04:49:28;;;;;;;3.90;1.48;;;;;;;16.83;100.00;97324.97;2613169;28;20041;-85
2023/08/02 04:50:43;;;;;;;1.42;1.30;;;;;;;16.77;100.00;97321.81;2612822;28;20040;-85
2023/08/02 04:51:59;;;;;;;2.78;1.48;;;;;;;16.90;100.00;97316.47;2612972;28;20098;-85
2023/08/02 04:53:14;;;;;;;2.35;1.63;;;;;;;16.94;100.00;97322.41;2613082;28;20146;-85
2023/08/02 04:54:30;;;;;;;2.33;1.30;;;;;;;16.50;100.00;97317.53;2612980;28;20068;-85
2023/08/02 04:55:46;;;;;;;2.20;1.30;;;;;;;16.50;100.00;97319.31;2612857;28;20471;-85
2023/08/02 04:57:01;;;;;;;1.60;1.13;;;;;;;16.58;100.00;97316.13;2613053;28;20048;-85
2023/08/02 04:58:17;;;;;;;2.35;1.30;;;;;;;16.65;100.00;97318.22;2612986;28;20417;-85
2023/08/02 04:59:32;;;;;;;5.85;1.30;;;;;;;16.60;100.00;97322.16;2612883;28;20061;-85
2023/08/02 05:00:48;;;;;;;4.05;1.30;;;;;;;16.57;100.00;97319.72;2612795;28;20071;-85
2023/08/02 05:02:03;;;;;;;2.40;1.38;;;;;;;16.48;100.00;97322.09;2613001;28;20045;-85
2023/08/02 05:03:19;;;;;;;1.10;1.00;;;;;;;16.37;100.00;97319.34;2612722;28;20040;-86
2023/08/02 05:04:35;;;;;;;3.47;1.27;;;;;;;16.43;100.00;97326.81;2612632;28;20480;-86
2023/08/02 05:05:51;;;;;;;3.20;1.30;;;;;;;16.61;100.00;97319.41;2612949;28;20049;-85
2023/08/02 05:07:07;;;;;;;2.42;1.20;;;;;;;16.66;100.00;97319.09;2612697;28;20138;-86
2023/08/02 05:08:22;;;;;;;3.45;1.90;;;;;;;16.70;100.00;97315.25;2612889;28;20481;-85
2023/08/02 05:09:38;;;;;;;3.42;1.40;;;;;;;16.60;100.00;97317.72;2612766;28;20040;-85
2023/08/02 05:10:53;;;;;;;3.10;1.40;;;;;;;16.79;100.00;97319.03;2612898;28;20044;-85
2023/08/02 05:12:09;;;;;;;2.90;1.40;;;;;;;16.87;100.00;97322.00;2612686;28;20390;-85
2023/08/02 05:13:26;;;;;;;3.38;1.20;;;;;;;16.91;100.00;97315.50;2612763;28;20554;-85
2023/08/02 05:14:42;;;;;;;2.90;1.30;;;;;;;17.10;100.00;97314.19;2612795;28;20048;-85
2023/08/02 05:15:57;;;;;;;3.38;1.30;;;;;;;17.04;100.00;97309.38;2612732;28;20484;-86
2023/08/02 05:17:13;;;;;;;2.65;1.40;;;;;;;17.10;100.00;97308.91;2612832;28;20053;-86
2023/08/02 05:18:28;;;;;;;2.13;1.30;;;;;;;17.07;100.00;97304.72;2612787;28;20114;-85
2023/08/02 05:19:44;;;;;;;3.10;1.70;;;;;;;17.22;100.00;97308.03;2612781;28;20049;-85
2023/08/02 05:20:59;;;;;;;1.95;1.40;;;;;;;17.32;100.00;97305.56;2612738;28;20037;-85
2023/08/02 05:22:15;;;;;;;5.00;1.23;;;;;;;17.19;100.00;97296.84;2612815;28;20045;-85
2023/08/02 05:23:31;;;;;;;2.55;0.70;;;;;;;17.13;100.00;97298.13;2612662;28;20044;-86
2023/08/02 05:24:46;;;;;;;2.47;1.13;;;;;;;17.06;100.00;97291.59;2612722;28;20103;-86
2023/08/02 05:26:06;;;;;;;2.00;1.30;;;;;;;17.30;100.00;97288.94;2612672;28;20040;-86
2023/08/02 05:27:22;;;;;;;3.97;1.42;;;;;;;17.48;100.00;97275.31;2612831;28;20408;-85
2023/08/02 05:28:37;;;;;;;4.93;1.23;;;;;;;17.42;100.00;97283.69;2612702;28;20045;-85
2023/08/02 05:29:53;;;;;;;3.03;1.40;;;;;;;17.40;100.00;97293.56;2612827;28;20048;-85
2023/08/02 05:31:12;;;;;;;1.10;1.00;;;;;;;17.41;100.00;97293.44;2612629;28;20349;-86
2023/08/02 05:32:28;;;;;;;2.53;1.40;;;;;;;17.58;100.00;97288.69;2612653;28;20420;-85
2023/08/02 05:33:43;;;;;;;3.40;1.58;;;;;;;17.41;100.00;97300.53;2612717;28;20049;-85
2023/08/02 05:34:59;;;;;;;2.70;1.40;;;;;;;17.62;100.00;97288.34;2612656;28;20408;-85
2023/08/02 05:36:15;;;;;;;2.80;1.13;;;;;;;17.78;100.00;97287.19;2612508;28;20041;-85
2023/08/02 05:37:31;;;;;;;2.85;1.30;;;;;;;17.95;100.00;97282.38;2612654;28;20091;-85
2023/08/02 05:38:46;;;;;;;3.33;1.45;;;;;;;17.97;100.00;97283.09;2612478;28;20442;-85
2023/08/02 05:40:02;;;;;;;3.13;1.50;;;;;;;17.89;100.00;97289.84;2612592;28;20080;-85
2023/08/02 05:41:18;;;;;;;1.70;1.02;;;;;;;17.87;100.00;97290.94;2612603;28;20045;-85
2023/08/02 05:42:34;;;;;;;3.45;1.25;;;;;;;17.86;100.00;97290.06;2612514;28;20053;-87
2023/08/02 05:43:49;;;;;;;1.98;1.42;;;;;;;17.90;100.00;97299.47;2612560;28;20052;-85
2023/08/02 05:45:05;;;;;;;2.65;1.35;;;;;;;17.94;100.00;97297.41;2612609;28;20045;-85
2023/08/02 05:46:21;;;;;;;1.65;1.27;;;;;;;18.06;100.00;97306.28;2612512;28;20098;-85
2023/08/02 05:47:36;;;;;;;2.13;1.40;;;;;;;18.34;100.00;97298.84;2612393;28;20075;-86
2023/08/02 05:48:52;;;;;;;2.20;1.42;;;;;;;18.48;100.00;97300.38;2612687;28;20049;-84
2023/08/02 05:50:08;;;;;;;1.85;0.52;;;;;;;18.36;96.89;97302.19;2612663;28;20046;-85
2023/08/02 05:51:23;;;;;;;2.65;1.05;;;;;;;18.37;95.42;97309.19;2612350;28;20063;-85
2023/08/02 05:52:39;;;;;;;3.50;1.42;;;;;;;18.54;92.80;97301.72;2612405;28;20048;-85
2023/08/02 05:53:54;;;;;;;3.30;1.50;;;;;;;18.59;95.60;97296.91;2612548;28;20060;-83
2023/08/02 05:55:10;;;;;;;1.48;1.05;;;;;;;18.56;92.02;97299.78;2612430;28;20044;-85